createdAt,value
2022-12-24T00:00:10.845Z,57.80
2022-12-24T00:02:37.919Z,59.00
2022-12-24T00:05:04.967Z,58.40
2022-12-24T00:07:31.816Z,58.40
2022-12-24T00:09:58.535Z,58.20
2022-12-24T00:12:25.327Z,58.40
2022-12-24T00:14:52.115Z,58.90
2022-12-24T00:17:19.050Z,58.50
2022-12-24T00:19:45.770Z,58.50
2022-12-24T00:22:12.507Z,58.40
2022-12-24T00:24:39.285Z,58.40
2022-12-24T00:27:06.037Z,58.30
2022-12-24T00:29:33.574Z,58.20
2022-12-24T00:32:00.429Z,58.20
2022-12-24T00:34:27.415Z,58.20
2022-12-24T00:36:54.174Z,58.20
2022-12-24T00:39:20.913Z,58.30
2022-12-24T00:41:47.676Z,58.10
2022-12-24T00:44:14.547Z,58.20
2022-12-24T00:46:41.667Z,58.10
2022-12-24T00:49:09.183Z,58.30
2022-12-24T00:51:37.152Z,58.30
2022-12-24T00:54:04.678Z,58.40
2022-12-24T00:56:31.493Z,58.10
2022-12-24T00:58:58.468Z,58.10
2022-12-24T01:01:25.727Z,58.10
2022-12-24T01:03:52.719Z,58.20
2022-12-24T01:06:20.921Z,58.10
2022-12-24T01:08:50.420Z,58.10
2022-12-24T01:11:17.242Z,58.10
2022-12-24T01:13:44.053Z,58.20
2022-12-24T01:16:18.613Z,58.10
2022-12-24T01:18:45.530Z,58.50
2022-12-24T01:21:12.692Z,58.30
2022-12-24T01:23:39.517Z,58.00
2022-12-24T01:26:06.361Z,58.10
2022-12-24T01:28:33.754Z,58.10
2022-12-24T01:31:00.806Z,58.00
2022-12-24T01:33:30.801Z,58.10
2022-12-24T01:35:57.667Z,58.00
2022-12-24T01:38:24.482Z,58.00
2022-12-24T01:41:09.996Z,58.00
2022-12-24T01:43:36.732Z,57.90
2022-12-24T01:46:09.865Z,57.80
2022-12-24T01:48:47.878Z,57.90
2022-12-24T01:51:22.704Z,58.20
2022-12-24T01:53:52.103Z,58.00
2022-12-24T01:56:19.587Z,57.80
2022-12-24T01:58:48.452Z,57.70
2022-12-24T02:01:15.438Z,57.90
2022-12-24T02:03:42.494Z,57.80
2022-12-24T02:06:10.711Z,57.80
2022-12-24T02:08:40.558Z,58.50
2022-12-24T02:11:11.475Z,57.90
2022-12-24T02:13:38.833Z,57.90
2022-12-24T02:16:10.029Z,57.80
2022-12-24T02:18:42.850Z,57.80
2022-12-24T02:21:23.152Z,57.80
2022-12-24T02:23:58.532Z,57.80
2022-12-24T02:26:31.533Z,57.80
2022-12-24T02:29:07.991Z,57.80
2022-12-24T02:31:41.224Z,57.80
2022-12-24T02:34:11.104Z,57.90
2022-12-24T02:36:42.938Z,57.90
2022-12-24T02:39:12.494Z,57.90
2022-12-24T02:42:01.182Z,57.80
2022-12-24T02:44:29.140Z,58.60
2022-12-24T02:46:56.976Z,58.70
2022-12-24T02:49:23.775Z,59.20
2022-12-24T02:51:50.565Z,58.20
2022-12-24T02:54:18.018Z,58.10
2022-12-24T02:56:50.620Z,58.10
2022-12-24T02:59:26.430Z,58.70
2022-12-24T03:01:56.097Z,58.80
2022-12-24T03:04:39.697Z,58.70
2022-12-24T03:07:06.618Z,58.60
2022-12-24T03:09:38.825Z,58.60
2022-12-24T03:12:12.246Z,58.00
2022-12-24T03:14:40.585Z,58.10
2022-12-24T03:17:08.233Z,58.00
2022-12-24T03:19:35.380Z,58.70
2022-12-24T03:22:04.328Z,58.20
2022-12-24T03:24:31.180Z,58.10
2022-12-24T03:26:59.562Z,58.10
2022-12-24T03:29:26.406Z,58.10
2022-12-24T03:31:58.769Z,58.10
2022-12-24T03:34:25.600Z,58.10
2022-12-24T03:36:52.392Z,58.50
2022-12-24T03:39:19.166Z,59.00
2022-12-24T03:41:46.028Z,58.40
2022-12-24T03:44:12.796Z,58.30
2022-12-24T03:46:39.541Z,58.30
2022-12-24T03:49:06.350Z,58.30
2022-12-24T03:51:33.488Z,58.40
2022-12-24T03:54:00.284Z,58.40
2022-12-24T03:56:27.242Z,58.40
2022-12-24T03:58:54.026Z,58.50
2022-12-24T04:01:20.947Z,58.20
2022-12-24T04:03:47.841Z,58.10
2022-12-24T04:06:16.109Z,58.00
2022-12-24T04:08:42.852Z,58.00
2022-12-24T04:11:15.471Z,58.00
2022-12-24T04:13:42.563Z,58.00
2022-12-24T04:16:10.693Z,58.00
2022-12-24T04:18:38.025Z,57.90
2022-12-24T04:21:05.750Z,58.00
2022-12-24T04:23:33.523Z,58.60
2022-12-24T04:26:04.368Z,57.90
2022-12-24T04:28:31.368Z,58.00
2022-12-24T04:31:01.756Z,58.00
2022-12-24T04:33:28.782Z,57.90
2022-12-24T04:35:57.752Z,57.90
2022-12-24T04:38:24.548Z,57.90
2022-12-24T04:41:01.278Z,58.00
2022-12-24T04:43:29.170Z,58.00
2022-12-24T04:45:56.246Z,58.30
2022-12-24T04:48:23.296Z,58.20
2022-12-24T04:50:50.047Z,58.10
2022-12-24T04:53:16.785Z,57.90
2022-12-24T04:55:46.673Z,57.90
2022-12-24T04:58:13.638Z,58.10
2022-12-24T05:00:41.077Z,58.10
2022-12-24T05:03:07.881Z,58.00
2022-12-24T05:05:34.702Z,58.00
2022-12-24T05:08:01.475Z,58.00
2022-12-24T05:10:28.208Z,58.10
2022-12-24T05:12:55.082Z,58.20
2022-12-24T05:15:21.871Z,58.20
2022-12-24T05:17:48.679Z,58.20
2022-12-24T05:20:16.095Z,58.20
2022-12-24T05:23:01.704Z,58.20
2022-12-24T05:25:52.712Z,58.20
2022-12-24T05:28:19.585Z,58.20
2022-12-24T05:30:46.726Z,57.90
2022-12-24T05:33:13.451Z,57.70
2022-12-24T05:35:40.248Z,57.70
2022-12-24T05:38:06.958Z,57.80
2022-12-24T05:40:33.850Z,57.80
2022-12-24T05:43:00.601Z,58.00
2022-12-24T05:45:27.339Z,58.10
2022-12-24T05:47:54.156Z,58.00
2022-12-24T05:50:20.884Z,58.20
2022-12-24T05:52:47.671Z,58.10
2022-12-24T05:55:14.456Z,58.10
2022-12-24T05:57:41.680Z,58.00
2022-12-24T06:00:08.897Z,58.10
2022-12-24T06:02:35.731Z,58.10
2022-12-24T06:05:02.702Z,58.20
2022-12-24T06:07:29.615Z,58.00
2022-12-24T06:09:56.314Z,58.10
2022-12-24T06:12:23.100Z,58.60
2022-12-24T06:14:49.833Z,58.10
2022-12-24T06:17:16.584Z,58.10
2022-12-24T06:19:43.540Z,57.70
2022-12-24T06:22:10.236Z,57.70
2022-12-24T06:24:37.152Z,57.80
2022-12-24T06:27:03.973Z,57.90
2022-12-24T06:29:30.709Z,57.80
2022-12-24T06:31:57.489Z,57.80
2022-12-24T06:34:24.311Z,57.70
2022-12-24T06:36:51.132Z,57.70
2022-12-24T06:39:17.863Z,57.60
2022-12-24T06:41:44.580Z,57.70
2022-12-24T06:44:11.458Z,57.60
2022-12-24T06:46:38.362Z,57.80
2022-12-24T06:49:05.166Z,57.80
2022-12-24T06:51:31.936Z,57.80
2022-12-24T06:53:58.628Z,57.80
2022-12-24T06:56:25.440Z,57.70
2022-12-24T06:58:52.707Z,57.90
2022-12-24T07:01:20.591Z,57.80
2022-12-24T07:03:48.327Z,57.80
2022-12-24T07:06:25.592Z,58.50
2022-12-24T07:08:52.744Z,58.20
2022-12-24T07:11:19.547Z,58.30
2022-12-24T07:13:46.572Z,58.30
2022-12-24T07:16:13.455Z,58.40
2022-12-24T07:18:40.256Z,58.30
2022-12-24T07:21:07.660Z,58.10
2022-12-24T07:23:34.690Z,58.00
2022-12-24T07:26:02.765Z,58.00
2022-12-24T07:28:30.061Z,58.10
2022-12-24T07:30:57.690Z,58.00
2022-12-24T07:33:25.526Z,57.90
2022-12-24T07:36:02.578Z,57.90
2022-12-24T07:38:29.798Z,57.80
2022-12-24T07:40:57.120Z,57.80
2022-12-24T07:43:26.621Z,57.80
2022-12-24T07:45:57.927Z,58.00
2022-12-24T07:48:25.826Z,57.80
2022-12-24T07:50:52.834Z,57.80
2022-12-24T07:53:19.850Z,57.80
2022-12-24T07:55:46.648Z,57.70
2022-12-24T07:58:13.546Z,57.70
2022-12-24T08:00:40.365Z,57.80
2022-12-24T08:03:07.264Z,57.80
2022-12-24T08:05:36.947Z,57.80
2022-12-24T08:08:03.790Z,57.70
2022-12-24T08:10:30.597Z,57.80
2022-12-24T08:12:57.357Z,57.80
2022-12-24T08:15:24.081Z,58.00
2022-12-24T08:17:50.906Z,58.10
2022-12-24T08:20:17.633Z,58.10
2022-12-24T08:22:44.391Z,57.80
2022-12-24T08:25:11.142Z,57.80
2022-12-24T08:27:38.189Z,57.80
2022-12-24T08:30:05.432Z,57.80
2022-12-24T08:32:32.256Z,57.70
2022-12-24T08:34:59.119Z,57.80
2022-12-24T08:37:25.839Z,57.80
2022-12-24T08:39:52.649Z,57.70
2022-12-24T08:42:19.794Z,57.70
2022-12-24T08:44:46.600Z,57.60
2022-12-24T08:47:13.377Z,57.60
2022-12-24T08:49:40.222Z,57.70
2022-12-24T08:52:07.444Z,57.80
2022-12-24T08:54:35.179Z,58.20
2022-12-24T08:57:02.215Z,57.70
2022-12-24T08:59:28.983Z,57.60
2022-12-24T09:01:55.904Z,57.60
2022-12-24T09:04:23.213Z,57.70
2022-12-24T09:06:50.037Z,57.50
2022-12-24T09:09:17.640Z,57.70
2022-12-24T09:11:45.314Z,58.30
2022-12-24T09:14:12.653Z,58.30
2022-12-24T09:16:39.594Z,58.10
2022-12-24T09:19:10.069Z,58.30
2022-12-24T09:21:36.844Z,58.30
2022-12-24T09:24:04.116Z,57.80
2022-12-24T09:26:32.227Z,58.20
2022-12-24T09:29:00.782Z,57.70
2022-12-24T09:31:28.193Z,57.80
2022-12-24T09:33:55.285Z,57.80
2022-12-24T09:36:22.038Z,58.50
2022-12-24T09:38:48.910Z,58.00
2022-12-24T09:41:20.565Z,57.90
2022-12-24T09:43:49.339Z,57.90
2022-12-24T09:46:28.224Z,57.80
2022-12-24T09:48:56.953Z,58.00
2022-12-24T09:51:36.032Z,58.40
2022-12-24T09:54:05.590Z,59.10
2022-12-24T09:56:38.643Z,59.10
2022-12-24T09:59:06.621Z,59.00
2022-12-24T10:01:34.331Z,58.80
2022-12-24T10:04:12.788Z,58.80
2022-12-24T10:06:51.504Z,59.20
2022-12-24T10:09:18.271Z,59.80
2022-12-24T10:11:48.104Z,59.90
2022-12-24T10:14:30.554Z,60.20
2022-12-24T10:17:23.758Z,60.10
2022-12-24T10:19:53.380Z,60.00
2022-12-24T10:22:26.607Z,59.80
2022-12-24T10:24:53.556Z,59.70
2022-12-24T10:27:23.997Z,59.70
2022-12-24T10:29:56.497Z,59.60
2022-12-24T10:32:26.303Z,60.10
2022-12-24T10:34:59.434Z,59.50
2022-12-24T10:37:28.656Z,59.60
2022-12-24T10:39:55.927Z,59.60
2022-12-24T10:42:25.372Z,59.70
2022-12-24T10:44:54.922Z,59.50
2022-12-24T10:47:22.592Z,59.50
2022-12-24T10:49:54.454Z,59.40
2022-12-24T10:52:23.046Z,59.20
2022-12-24T10:55:08.613Z,59.20
2022-12-24T10:57:35.434Z,59.10
2022-12-24T11:00:03.203Z,59.10
2022-12-24T11:02:30.215Z,59.00
2022-12-24T11:04:59.522Z,59.00
2022-12-24T11:07:26.564Z,59.00
2022-12-24T11:09:58.301Z,59.00
2022-12-24T11:12:26.508Z,58.90
2022-12-24T11:15:07.661Z,58.80
2022-12-24T11:17:34.568Z,58.80
2022-12-24T11:20:03.433Z,58.80
2022-12-24T11:22:31.725Z,58.80
2022-12-24T11:24:58.406Z,58.70
2022-12-24T11:27:33.781Z,58.70
2022-12-24T11:30:15.683Z,58.70
2022-12-24T11:32:42.536Z,58.60
2022-12-24T11:35:15.438Z,58.60
2022-12-24T11:37:42.196Z,58.60
2022-12-24T11:40:20.133Z,58.60
2022-12-24T11:42:47.404Z,58.60
2022-12-24T11:45:27.602Z,58.50
2022-12-24T11:47:54.745Z,58.50
2022-12-24T11:50:26.438Z,58.50
2022-12-24T11:53:07.362Z,58.30
2022-12-24T11:55:41.838Z,58.30
2022-12-24T11:58:27.362Z,58.30
2022-12-24T12:01:01.285Z,58.30
2022-12-24T12:03:30.718Z,58.30
2022-12-24T12:05:59.080Z,58.30
2022-12-24T12:08:27.134Z,58.30
2022-12-24T12:10:54.560Z,58.30
2022-12-24T12:13:24.972Z,58.20
2022-12-24T12:15:54.295Z,58.10
2022-12-24T12:18:26.634Z,58.10
2022-12-24T12:21:06.027Z,58.10
2022-12-24T12:23:44.467Z,58.10
2022-12-24T12:26:15.071Z,58.10
2022-12-24T12:28:46.104Z,58.10
2022-12-24T12:31:16.419Z,58.70
2022-12-24T12:33:46.748Z,58.90
2022-12-24T12:36:16.036Z,61.00
2022-12-24T12:38:42.777Z,61.20
2022-12-24T12:41:12.380Z,61.20
2022-12-24T12:43:57.647Z,61.00
2022-12-24T12:46:30.900Z,61.90
2022-12-24T12:49:04.929Z,61.70
2022-12-24T12:51:40.539Z,61.90
2022-12-24T12:54:30.776Z,59.60
2022-12-24T12:57:01.045Z,59.20
2022-12-24T12:59:30.757Z,58.50
2022-12-24T13:02:13.426Z,58.00
2022-12-24T13:05:09.701Z,57.50
2022-12-24T13:07:55.031Z,57.40
2022-12-24T13:10:40.368Z,57.00
2022-12-24T13:13:07.034Z,56.80
2022-12-24T13:15:53.323Z,56.50
2022-12-24T13:18:20.050Z,56.20
2022-12-24T13:20:47.973Z,55.90
2022-12-24T13:23:17.720Z,56.10
2022-12-24T13:25:46.599Z,56.00
2022-12-24T13:28:17.091Z,55.70
2022-12-24T13:30:44.722Z,55.60
2022-12-24T13:33:12.824Z,55.40
2022-12-24T13:35:58.356Z,55.50
2022-12-24T13:38:27.851Z,55.40
2022-12-24T13:40:54.722Z,55.20
2022-12-24T13:43:21.693Z,55.20
2022-12-24T13:45:51.912Z,54.90
2022-12-24T13:48:27.196Z,55.00
2022-12-24T13:50:55.851Z,54.60
2022-12-24T13:53:37.880Z,54.40
2022-12-24T13:56:25.653Z,54.10
2022-12-24T13:59:12.668Z,54.30
2022-12-24T14:01:42.013Z,53.90
2022-12-24T14:04:10.753Z,53.90
2022-12-24T14:06:39.733Z,54.00
2022-12-24T14:09:11.210Z,53.80
2022-12-24T14:11:53.267Z,53.60
2022-12-24T14:14:26.969Z,53.70
2022-12-24T14:16:55.358Z,53.40
2022-12-24T14:19:28.920Z,53.20
2022-12-24T14:22:04.607Z,53.40
2022-12-24T14:24:35.540Z,53.30
2022-12-24T14:27:24.773Z,53.00
2022-12-24T14:29:51.469Z,52.90
2022-12-24T14:32:18.166Z,52.90
2022-12-24T14:34:45.176Z,52.80
2022-12-24T14:37:13.507Z,52.70
2022-12-24T14:39:44.881Z,52.60
2022-12-24T14:42:14.606Z,52.50
2022-12-24T14:44:41.371Z,52.10
2022-12-24T14:47:28.841Z,52.20
2022-12-24T14:49:58.668Z,52.20
2022-12-24T14:53:03.995Z,52.10
2022-12-24T14:55:28.632Z,51.90
2022-12-24T14:58:14.166Z,51.60
2022-12-24T15:00:42.872Z,51.60
2022-12-24T15:03:17.051Z,51.60
2022-12-24T15:05:44.288Z,51.60
2022-12-24T15:08:23.671Z,51.60
2022-12-24T15:10:52.297Z,51.30
2022-12-24T15:13:36.858Z,51.30
2022-12-24T15:16:05.630Z,51.40
2022-12-24T15:18:34.748Z,51.20
2022-12-24T15:21:05.386Z,51.20
2022-12-24T15:23:33.783Z,51.40
2022-12-24T15:26:19.517Z,51.10
2022-12-24T15:28:46.768Z,51.00
2022-12-24T15:31:14.927Z,50.60
2022-12-24T15:33:44.375Z,50.80
2022-12-24T15:36:11.152Z,50.60
2022-12-24T15:38:39.998Z,50.40
2022-12-24T15:41:09.573Z,50.30
2022-12-24T15:43:39.373Z,50.30
2022-12-24T15:46:06.289Z,50.30
2022-12-24T15:48:33.371Z,50.30
2022-12-24T15:51:01.591Z,50.00
2022-12-24T15:53:28.318Z,50.00
2022-12-24T15:56:01.251Z,50.10
2022-12-24T15:58:29.688Z,49.90
2022-12-24T16:01:00.472Z,50.50
2022-12-24T16:03:27.303Z,49.90
2022-12-24T16:06:04.821Z,49.80
2022-12-24T16:08:35.336Z,49.70
2022-12-24T16:11:11.430Z,49.80
2022-12-24T16:13:50.502Z,49.60
2022-12-24T16:16:19.220Z,49.60
2022-12-24T16:18:51.846Z,49.50
2022-12-24T16:21:28.215Z,49.50
2022-12-24T16:23:56.495Z,51.60
2022-12-24T16:26:23.312Z,51.60
2022-12-24T16:28:50.078Z,52.20
2022-12-24T16:31:28.234Z,53.60
2022-12-24T16:33:55.642Z,53.10
2022-12-24T16:36:22.461Z,54.00
2022-12-24T16:39:07.797Z,54.50
2022-12-24T16:41:54.532Z,54.70
2022-12-24T16:44:21.555Z,54.80
2022-12-24T16:46:48.430Z,55.20
2022-12-24T16:49:19.459Z,55.20
2022-12-24T16:51:46.597Z,55.40
2022-12-24T16:54:14.036Z,55.50
2022-12-24T16:56:41.752Z,55.70
2022-12-24T16:59:19.072Z,55.60
2022-12-24T17:01:46.001Z,55.50
2022-12-24T17:04:13.469Z,55.80
2022-12-24T17:06:40.308Z,55.60
2022-12-24T17:09:08.131Z,56.10
2022-12-24T17:11:35.003Z,55.90
2022-12-24T17:14:07.857Z,56.10
2022-12-24T17:16:37.585Z,56.10
2022-12-24T17:19:04.929Z,56.20
2022-12-24T17:21:31.989Z,56.20
2022-12-24T17:23:58.713Z,56.30
2022-12-24T17:26:25.451Z,56.30
2022-12-24T17:28:56.033Z,56.30
2022-12-24T17:31:23.246Z,56.50
2022-12-24T17:33:50.812Z,56.60
2022-12-24T17:36:17.974Z,56.60
2022-12-24T17:38:44.795Z,56.70
2022-12-24T17:41:12.691Z,56.40
2022-12-24T17:43:39.487Z,56.70
2022-12-24T17:46:11.568Z,56.50
2022-12-24T17:48:38.391Z,56.80
2022-12-24T17:51:05.816Z,56.50
2022-12-24T17:53:36.523Z,56.60
2022-12-24T17:56:03.735Z,56.90
2022-12-24T17:58:30.694Z,57.00
2022-12-24T18:00:57.528Z,56.80
2022-12-24T18:03:24.738Z,56.90
2022-12-24T18:05:52.567Z,56.90
2022-12-24T18:08:19.701Z,56.80
2022-12-24T18:10:47.173Z,56.90
2022-12-24T18:13:19.324Z,56.90
2022-12-24T18:15:46.517Z,56.80
2022-12-24T18:18:13.252Z,56.90
2022-12-24T18:20:46.283Z,56.90
2022-12-24T18:23:13.512Z,56.80
2022-12-24T18:25:40.261Z,56.90
2022-12-24T18:28:07.002Z,56.90
2022-12-24T18:30:33.698Z,56.90
2022-12-24T18:33:00.836Z,56.80
2022-12-24T18:35:28.309Z,56.90
2022-12-24T18:37:55.134Z,56.90
2022-12-24T18:40:21.858Z,56.90
2022-12-24T18:42:48.654Z,56.80
2022-12-24T18:45:15.441Z,57.00
2022-12-24T18:47:42.156Z,56.90
2022-12-24T18:50:09.064Z,56.90
2022-12-24T18:52:35.790Z,57.00
2022-12-24T18:55:02.598Z,56.80
2022-12-24T18:57:30.788Z,56.90
2022-12-24T18:59:57.592Z,56.90
2022-12-24T19:02:24.467Z,56.60
2022-12-24T19:04:51.463Z,56.00
2022-12-24T19:07:18.102Z,56.80
2022-12-24T19:09:48.373Z,56.20
2022-12-24T19:12:15.831Z,56.80
2022-12-24T19:14:42.724Z,56.60
2022-12-24T19:17:09.742Z,56.80
2022-12-24T19:19:36.560Z,56.70
2022-12-24T19:22:03.355Z,56.70
2022-12-24T19:24:30.170Z,56.80
2022-12-24T19:26:56.908Z,56.80
2022-12-24T19:29:23.621Z,56.90
2022-12-24T19:31:50.401Z,56.80
2022-12-24T19:34:17.217Z,56.80
2022-12-24T19:36:43.978Z,56.80
2022-12-24T19:39:10.709Z,56.80
2022-12-24T19:41:37.479Z,57.20
2022-12-24T19:44:04.313Z,57.00
2022-12-24T19:46:33.027Z,56.90
2022-12-24T19:49:01.244Z,57.10
2022-12-24T19:51:29.064Z,57.20
2022-12-24T19:53:56.328Z,57.60
2022-12-24T19:56:24.209Z,57.30
2022-12-24T19:58:51.367Z,57.40
2022-12-24T20:01:20.043Z,57.40
2022-12-24T20:03:47.336Z,57.20
2022-12-24T20:06:14.310Z,57.20
2022-12-24T20:08:41.273Z,57.50
2022-12-24T20:11:09.076Z,57.30
2022-12-24T20:13:36.288Z,57.50
2022-12-24T20:16:07.146Z,57.60
2022-12-24T20:18:34.360Z,57.60
2022-12-24T20:21:02.030Z,57.50
2022-12-24T20:23:29.127Z,57.60
2022-12-24T20:25:57.700Z,57.70
2022-12-24T20:28:24.960Z,57.70
2022-12-24T20:30:51.728Z,57.70
2022-12-24T20:33:18.485Z,57.60
2022-12-24T20:35:45.191Z,57.70
2022-12-24T20:38:12.015Z,57.80
2022-12-24T20:40:42.482Z,57.70
2022-12-24T20:43:09.760Z,57.70
2022-12-24T20:45:36.831Z,57.70
2022-12-24T20:48:04.204Z,57.60
2022-12-24T20:50:31.705Z,57.50
2022-12-24T20:52:58.513Z,57.50
2022-12-24T20:55:25.200Z,57.70
2022-12-24T20:57:52.414Z,57.60
2022-12-24T21:00:19.984Z,57.90
2022-12-24T21:02:46.888Z,57.70
2022-12-24T21:05:13.668Z,57.80
2022-12-24T21:07:40.775Z,57.80
2022-12-24T21:10:07.853Z,57.80
2022-12-24T21:12:51.974Z,58.30
2022-12-24T21:15:23.671Z,58.10
2022-12-24T21:17:50.688Z,58.00
2022-12-24T21:20:17.608Z,58.00
2022-12-24T21:22:44.596Z,58.00
2022-12-24T21:25:12.058Z,58.00
2022-12-24T21:27:39.647Z,58.00
2022-12-24T21:30:08.339Z,58.10
2022-12-24T21:32:35.712Z,58.00
2022-12-24T21:35:02.612Z,58.00
2022-12-24T21:37:29.340Z,57.90
2022-12-24T21:39:56.079Z,58.00
2022-12-24T21:42:22.886Z,57.90
2022-12-24T21:44:49.682Z,57.90
2022-12-24T21:47:16.429Z,57.90
2022-12-24T21:50:02.133Z,58.00
2022-12-24T21:52:29.020Z,57.70
2022-12-24T21:54:55.728Z,57.80
2022-12-24T21:57:40.953Z,57.80
2022-12-24T22:00:23.051Z,57.80
2022-12-24T22:02:54.566Z,57.80
2022-12-24T22:05:21.881Z,57.80
2022-12-24T22:08:07.221Z,57.80
2022-12-24T22:10:52.880Z,57.80
2022-12-24T22:13:20.753Z,57.80
2022-12-24T22:15:48.841Z,57.80
2022-12-24T22:18:16.772Z,57.80
2022-12-24T22:20:44.830Z,57.70
2022-12-24T22:23:12.505Z,57.80
2022-12-24T22:25:39.278Z,57.80
2022-12-24T22:28:06.078Z,57.80
2022-12-24T22:30:36.305Z,57.70
2022-12-24T22:33:03.047Z,57.70
2022-12-24T22:35:29.776Z,57.60
2022-12-24T22:38:00.194Z,57.70
2022-12-24T22:40:28.058Z,57.80
2022-12-24T22:42:55.031Z,58.00
2022-12-24T22:45:22.682Z,57.90
2022-12-24T22:47:49.945Z,58.00
2022-12-24T22:50:16.878Z,58.00
2022-12-24T23:00:13.142Z,88.20
2022-12-24T23:02:40.025Z,75.10
2022-12-24T23:05:06.975Z,83.90
2022-12-24T23:07:33.741Z,76.20
2022-12-24T23:10:00.747Z,71.10
2022-12-24T23:12:46.247Z,71.60
2022-12-24T23:15:12.967Z,71.20
2022-12-24T23:17:39.656Z,71.10
2022-12-24T23:20:06.787Z,71.30
2022-12-24T23:22:33.502Z,71.10
2022-12-24T23:25:00.602Z,71.80
2022-12-24T23:27:27.354Z,72.10
2022-12-24T23:29:54.052Z,68.20
2022-12-24T23:32:20.837Z,72.80
2022-12-24T23:34:47.561Z,72.80
2022-12-24T23:37:14.343Z,77.60
2022-12-24T23:39:41.090Z,72.00
2022-12-24T23:42:07.836Z,74.60
2022-12-24T23:44:34.538Z,70.70
2022-12-24T23:47:01.421Z,71.00
2022-12-24T23:49:28.256Z,72.80
2022-12-24T23:51:55.276Z,72.20
2022-12-24T23:54:22.033Z,73.00
2022-12-24T23:56:48.753Z,72.20
2022-12-24T23:59:15.560Z,73.50
